createdAt,value
2023-04-23T00:01:06.846Z,100269.34
2023-04-23T00:03:34.385Z,100269.69
2023-04-23T00:06:05.695Z,100260.41
2023-04-23T00:08:32.943Z,100261.56
2023-04-23T00:10:59.733Z,100259.38
2023-04-23T00:13:26.486Z,100257.72
2023-04-23T00:15:53.400Z,100250.75
2023-04-23T00:18:20.653Z,100251.63
2023-04-23T00:20:47.070Z,100241.94
2023-04-23T00:23:13.500Z,100247.44
2023-04-23T00:25:39.997Z,100242.28
2023-04-23T00:28:06.441Z,100248.44
2023-04-23T00:30:33.620Z,100233.34
2023-04-23T00:33:00.123Z,100228.34
2023-04-23T00:35:26.856Z,100234.81
2023-04-23T00:37:53.304Z,100227.00
2023-04-23T00:40:21.140Z,100229.81
2023-04-23T00:42:49.183Z,100230.81
2023-04-23T00:45:16.119Z,100226.53
2023-04-23T00:47:43.363Z,100228.50
2023-04-23T00:50:09.861Z,100228.84
2023-04-23T00:52:39.073Z,100234.00
2023-04-23T00:55:05.952Z,100232.81
2023-04-23T00:57:33.308Z,100231.38
2023-04-23T01:00:00.461Z,100231.53
2023-04-23T01:02:28.540Z,100221.09
2023-04-23T01:04:55.916Z,100223.94
2023-04-23T01:07:22.830Z,100219.66
2023-04-23T01:09:50.515Z,100218.47
2023-04-23T01:12:16.960Z,100216.53
2023-04-23T01:14:43.942Z,100224.81
2023-04-23T01:17:12.172Z,100230.94
2023-04-23T01:19:39.350Z,100226.16
2023-04-23T01:22:14.255Z,100222.16
2023-04-23T01:24:42.687Z,100224.16
2023-04-23T01:27:10.307Z,100225.50
2023-04-23T01:29:38.418Z,100219.19
2023-04-23T01:32:05.591Z,100228.47
2023-04-23T01:34:32.754Z,100222.81
2023-04-23T01:36:59.433Z,100225.78
2023-04-23T01:39:26.262Z,100224.44
2023-04-23T01:41:53.329Z,100221.09
2023-04-23T01:44:19.755Z,100214.47
2023-04-23T01:46:46.813Z,100220.28
2023-04-23T01:49:14.459Z,100219.13
2023-04-23T01:51:40.872Z,100213.00
2023-04-23T01:54:07.284Z,100212.19
2023-04-23T01:56:35.591Z,100215.50
2023-04-23T01:59:02.505Z,100217.81
2023-04-23T02:01:45.287Z,100221.97
2023-04-23T02:04:13.362Z,100217.03
2023-04-23T02:06:41.155Z,100214.03
2023-04-23T02:09:08.100Z,100214.22
2023-04-23T02:11:34.595Z,100224.34
2023-04-23T02:14:01.978Z,100218.19
2023-04-23T02:16:29.113Z,100211.56
2023-04-23T02:18:55.874Z,100214.75
2023-04-23T02:21:24.374Z,100214.41
2023-04-23T02:23:51.387Z,100216.88
2023-04-23T02:26:18.805Z,100215.22
2023-04-23T02:28:46.163Z,100212.91
2023-04-23T02:31:12.811Z,100216.75
2023-04-23T02:33:39.286Z,100213.94
2023-04-23T02:36:06.018Z,100212.09
2023-04-23T02:38:32.560Z,100216.25
2023-04-23T02:40:59.095Z,100217.06
2023-04-23T02:43:25.539Z,100214.75
2023-04-23T02:45:51.930Z,100214.06
2023-04-23T02:48:18.617Z,100212.75
2023-04-23T02:50:45.039Z,100208.59
2023-04-23T02:53:11.504Z,100208.28
2023-04-23T02:55:37.980Z,100212.56
2023-04-23T02:58:04.484Z,100209.44
2023-04-23T03:00:33.202Z,100208.75
2023-04-23T03:02:59.779Z,100205.47
2023-04-23T03:05:26.334Z,100196.63
2023-04-23T03:07:52.779Z,100204.28
2023-04-23T03:10:19.310Z,100200.00
2023-04-23T03:12:45.776Z,100203.63
2023-04-23T03:15:12.650Z,100197.50
2023-04-23T03:17:39.362Z,100191.38
2023-04-23T03:20:08.704Z,100198.50
2023-04-23T03:22:36.078Z,100191.19
2023-04-23T03:25:03.866Z,100189.16
2023-04-23T03:27:30.332Z,100190.19
2023-04-23T03:29:56.911Z,100188.50
2023-04-23T03:32:23.469Z,100180.72
2023-04-23T03:34:50.027Z,100185.53
2023-04-23T03:37:16.776Z,100183.88
2023-04-23T03:39:43.278Z,100183.88
2023-04-23T03:42:11.114Z,100190.81
2023-04-23T03:44:38.695Z,100184.19
2023-04-23T03:47:05.717Z,100186.06
2023-04-23T03:49:32.572Z,100183.91
2023-04-23T03:51:59.052Z,100193.84
2023-04-23T03:54:26.538Z,100183.69
2023-04-23T03:57:12.100Z,100191.16
2023-04-23T03:59:49.277Z,100196.31
2023-04-23T04:02:15.848Z,100188.34
2023-04-23T04:04:46.221Z,100194.16
2023-04-23T04:07:13.123Z,100193.13
2023-04-23T04:09:39.749Z,100191.19
2023-04-23T04:12:06.311Z,100195.31
2023-04-23T04:14:33.022Z,100189.03
2023-04-23T04:16:59.432Z,100189.50
2023-04-23T04:19:25.913Z,100191.50
2023-04-23T04:21:52.360Z,100187.19
2023-04-23T04:24:18.753Z,100191.19
2023-04-23T04:26:45.938Z,100186.53
2023-04-23T04:29:12.612Z,100188.66
2023-04-23T04:31:39.188Z,100187.84
2023-04-23T04:34:07.206Z,100203.59
2023-04-23T04:36:35.135Z,100198.09
2023-04-23T04:39:03.384Z,100198.44
2023-04-23T04:41:29.870Z,100193.28
2023-04-23T04:43:56.747Z,100205.22
2023-04-23T04:46:23.267Z,100200.41
2023-04-23T04:48:50.018Z,100197.59
2023-04-23T04:51:16.450Z,100194.44
2023-04-23T04:53:42.899Z,100206.38
2023-04-23T04:56:09.328Z,100205.50
2023-04-23T04:58:36.367Z,100196.56
2023-04-23T05:01:02.982Z,100192.44
2023-04-23T05:03:29.614Z,100187.13
2023-04-23T05:05:56.457Z,100189.63
2023-04-23T05:08:22.952Z,100195.91
2023-04-23T05:10:50.441Z,100197.56
2023-04-23T05:13:17.659Z,100207.34
2023-04-23T05:15:45.529Z,100210.44
2023-04-23T05:18:11.969Z,100215.28
2023-04-23T05:20:38.486Z,100210.66
2023-04-23T05:23:04.914Z,100204.84
2023-04-23T05:25:32.029Z,100211.94
2023-04-23T05:27:58.467Z,100213.16
2023-04-23T05:30:24.947Z,100218.28
2023-04-23T05:32:51.428Z,100211.13
2023-04-23T05:35:17.895Z,100216.78
2023-04-23T05:37:44.304Z,100216.28
2023-04-23T05:40:10.994Z,100214.97
2023-04-23T05:42:37.438Z,100221.06
2023-04-23T05:45:06.626Z,100221.09
2023-04-23T05:47:34.470Z,100225.59
2023-04-23T05:50:01.640Z,100231.34
2023-04-23T05:52:31.343Z,100228.69
2023-04-23T05:54:57.802Z,100232.16
2023-04-23T05:57:24.234Z,100226.88
2023-04-23T05:59:50.667Z,100230.56
2023-04-23T06:02:17.216Z,100233.19
2023-04-23T06:04:44.057Z,100231.88
2023-04-23T06:07:11.382Z,100238.22
2023-04-23T06:09:37.830Z,100229.25
2023-04-23T06:12:04.318Z,100227.44
2023-04-23T06:14:30.734Z,100232.06
2023-04-23T06:16:57.156Z,100230.59
2023-04-23T06:19:26.470Z,100230.41
2023-04-23T06:21:52.913Z,100228.56
2023-04-23T06:24:19.321Z,100235.06
2023-04-23T06:26:46.122Z,100236.06
2023-04-23T06:29:16.505Z,100234.88
2023-04-23T06:31:51.094Z,100246.50
2023-04-23T06:34:17.619Z,100252.28
2023-04-23T06:36:44.092Z,100250.81
2023-04-23T06:39:10.523Z,100250.00
2023-04-23T06:41:36.948Z,100252.16
2023-04-23T06:44:12.025Z,100255.91
2023-04-23T06:46:49.509Z,100251.91
2023-04-23T06:49:16.003Z,100254.41
2023-04-23T06:51:42.468Z,100256.56
2023-04-23T06:54:08.884Z,100255.91
2023-04-23T06:56:35.380Z,100254.06
2023-04-23T06:59:01.937Z,100255.09
2023-04-23T07:01:29.488Z,100247.16
2023-04-23T07:03:56.045Z,100251.97
2023-04-23T07:06:22.556Z,100261.25
2023-04-23T07:08:49.158Z,100257.75
2023-04-23T07:11:15.835Z,100252.59
2023-04-23T07:13:42.416Z,100252.09
2023-04-23T07:16:08.890Z,100251.88
2023-04-23T07:18:35.342Z,100252.72
2023-04-23T07:21:02.229Z,100257.53
2023-04-23T07:23:28.703Z,100257.88
2023-04-23T07:25:55.143Z,100248.94
2023-04-23T07:28:21.577Z,100260.72
2023-04-23T07:30:48.175Z,100258.06
2023-04-23T07:33:14.697Z,100262.50
2023-04-23T07:35:41.120Z,100262.31
2023-04-23T07:38:07.638Z,100256.56
2023-04-23T07:40:34.066Z,100266.50
2023-04-23T07:43:01.057Z,100262.53
2023-04-23T07:45:27.507Z,100257.09
2023-04-23T07:47:53.917Z,100266.34
2023-04-23T07:50:20.666Z,100265.50
2023-04-23T07:52:47.105Z,100270.81
2023-04-23T07:55:13.560Z,100278.00
2023-04-23T07:57:39.989Z,100273.66
2023-04-23T08:00:09.367Z,100268.50
2023-04-23T08:02:38.668Z,100264.38
2023-04-23T08:05:05.622Z,100269.19
2023-04-23T08:07:32.235Z,100264.38
2023-04-23T08:10:02.857Z,100265.72
2023-04-23T08:12:30.149Z,100269.53
2023-04-23T08:14:56.625Z,100267.06
2023-04-23T08:17:29.222Z,100280.34
2023-04-23T08:19:55.681Z,100275.50
2023-04-23T08:22:22.312Z,100272.72
2023-04-23T08:24:48.816Z,100278.19
2023-04-23T08:27:15.228Z,100276.69
2023-04-23T08:29:41.884Z,100274.53
2023-04-23T08:32:08.550Z,100284.63
2023-04-23T08:34:35.868Z,100280.97
2023-04-23T08:37:02.354Z,100278.84
2023-04-23T08:39:30.517Z,100286.94
2023-04-23T08:42:03.533Z,100295.22
2023-04-23T08:44:31.343Z,100283.13
2023-04-23T08:46:58.326Z,100292.75
2023-04-23T08:49:29.452Z,100292.88
2023-04-23T08:51:58.608Z,100297.94
2023-04-23T08:54:26.982Z,100309.56
2023-04-23T08:57:00.810Z,100315.25
2023-04-23T08:59:30.690Z,100302.47
2023-04-23T09:01:57.551Z,100308.28
2023-04-23T09:04:25.563Z,100313.25
2023-04-23T09:06:52.441Z,100311.56
2023-04-23T09:09:23.575Z,100310.22
2023-04-23T09:11:51.273Z,100316.13
2023-04-23T09:14:19.743Z,100321.09
2023-04-23T09:16:46.237Z,100324.66
2023-04-23T09:19:13.256Z,100326.34
2023-04-23T09:21:42.566Z,100334.69
2023-04-23T09:24:13.126Z,100335.69
2023-04-23T09:26:47.027Z,100338.97
2023-04-23T09:29:19.240Z,100346.66
2023-04-23T09:31:47.931Z,100335.34
2023-04-23T09:34:21.790Z,100346.25
2023-04-23T09:36:52.764Z,100346.28
2023-04-23T09:39:21.627Z,100349.09
2023-04-23T09:41:48.607Z,100354.63
2023-04-23T09:44:19.653Z,100355.41
2023-04-23T09:46:46.059Z,100356.69
2023-04-23T09:49:13.294Z,100343.38
2023-04-23T09:51:41.603Z,100353.31
2023-04-23T09:54:13.376Z,100351.47
2023-04-23T09:56:41.475Z,100358.63
2023-04-23T10:02:02.797Z,100362.72
2023-04-23T10:04:29.631Z,100365.53
2023-04-23T10:07:17.255Z,100359.03
2023-04-23T10:09:46.352Z,100365.03
2023-04-23T10:12:29.605Z,100366.53
2023-04-23T10:15:00.277Z,100369.31
2023-04-23T10:17:27.040Z,100369.78
2023-04-23T10:19:55.598Z,100362.22
2023-04-23T10:22:23.045Z,100359.72
2023-04-23T10:24:55.873Z,100367.34
2023-04-23T10:27:44.562Z,100358.66
2023-04-23T10:30:16.232Z,100361.88
2023-04-23T10:32:44.831Z,100358.84
2023-04-23T10:35:11.408Z,100361.44
2023-04-23T10:37:38.587Z,100358.72
2023-04-23T10:40:12.824Z,100352.34
2023-04-23T10:42:40.632Z,100361.59
2023-04-23T10:47:47.069Z,100368.44
2023-04-23T10:50:22.474Z,100373.69
2023-04-23T10:52:53.324Z,100374.19
2023-04-23T10:55:27.767Z,100371.75
2023-04-23T10:58:00.888Z,100379.50
2023-04-23T11:00:30.681Z,100371.00
2023-04-23T11:02:57.383Z,100370.25
2023-04-23T11:05:25.786Z,100364.97
2023-04-23T11:10:54.188Z,100367.59
2023-04-23T11:13:23.676Z,100380.25
2023-04-23T11:16:14.009Z,100364.97
2023-04-23T11:19:04.972Z,100363.97
2023-04-23T11:21:50.269Z,100364.47
2023-04-23T11:24:16.698Z,100366.31
2023-04-23T11:26:44.020Z,100355.22
2023-04-23T11:29:14.437Z,100361.22
2023-04-23T11:31:50.659Z,100361.63
2023-04-23T11:34:28.610Z,100353.53
2023-04-23T11:36:55.149Z,100361.25
2023-04-23T11:39:24.174Z,100355.50
2023-04-23T11:41:52.301Z,100352.94
2023-04-23T11:44:21.963Z,100354.38
2023-04-23T11:46:49.638Z,100352.94
2023-04-23T11:49:18.578Z,100343.31
2023-04-23T11:51:46.018Z,100346.84
2023-04-23T11:54:13.672Z,100354.97
2023-04-23T11:56:41.164Z,100346.66
2023-04-23T11:59:08.314Z,100340.50
2023-04-23T12:01:47.051Z,100351.44
2023-04-23T12:04:20.977Z,100350.13
2023-04-23T12:06:48.822Z,100344.78
2023-04-23T12:09:16.034Z,100357.22
2023-04-23T12:11:43.597Z,100359.38
2023-04-23T12:14:11.107Z,100352.78
2023-04-23T12:16:41.299Z,100368.13
2023-04-23T12:19:09.747Z,100361.16
2023-04-23T12:21:48.073Z,100362.00
2023-04-23T12:24:14.867Z,100354.34
2023-04-23T12:26:42.234Z,100359.34
2023-04-23T12:29:08.698Z,100366.22
2023-04-23T12:31:37.300Z,100360.03
2023-04-23T12:34:06.087Z,100360.50
2023-04-23T12:36:33.738Z,100361.00
2023-04-23T12:39:22.131Z,100356.09
2023-04-23T12:41:51.282Z,100358.06
2023-04-23T12:44:17.691Z,100349.63
2023-04-23T12:46:44.417Z,100346.41
2023-04-23T12:49:10.853Z,100352.06
2023-04-23T12:51:37.605Z,100345.31
2023-04-23T12:54:04.295Z,100348.91
2023-04-23T12:56:30.706Z,100351.41
2023-04-23T12:58:57.495Z,100344.81
2023-04-23T13:01:23.895Z,100345.06
2023-04-23T13:03:50.940Z,100340.91
2023-04-23T13:06:17.433Z,100338.53
2023-04-23T13:08:43.813Z,100338.81
2023-04-23T13:11:11.217Z,100342.34
2023-04-23T13:13:37.674Z,100341.03
2023-04-23T13:16:04.180Z,100333.94
2023-04-23T13:18:30.577Z,100333.00
2023-04-23T13:20:57.499Z,100333.09
2023-04-23T13:23:23.885Z,100326.72
2023-04-23T13:25:50.301Z,100333.38
2023-04-23T13:28:16.714Z,100322.22
2023-04-23T13:30:43.117Z,100322.31
2023-04-23T13:33:09.551Z,100315.19
2023-04-23T13:35:37.715Z,100321.63
2023-04-23T13:38:04.757Z,100312.34
2023-04-23T13:40:31.168Z,100315.09
2023-04-23T13:42:57.582Z,100314.66
2023-04-23T13:45:23.979Z,100306.50
2023-04-23T13:47:50.697Z,100301.09
2023-04-23T13:50:17.176Z,100297.78
2023-04-23T13:52:43.706Z,100295.91
2023-04-23T13:55:10.355Z,100297.63
2023-04-23T13:57:38.125Z,100299.66
2023-04-23T14:00:05.391Z,100297.75
2023-04-23T14:02:31.903Z,100295.06
2023-04-23T14:04:58.611Z,100282.38
2023-04-23T14:07:25.063Z,100289.22
2023-04-23T14:09:52.791Z,100277.53
2023-04-23T14:12:20.039Z,100277.28
2023-04-23T14:14:46.450Z,100271.84
2023-04-23T14:17:12.834Z,100273.47
2023-04-23T14:19:39.265Z,100273.47
2023-04-23T14:22:06.156Z,100269.16
2023-04-23T14:24:39.405Z,100265.41
2023-04-23T14:27:06.085Z,100263.00
2023-04-23T14:29:46.183Z,100259.09
2023-04-23T14:32:12.925Z,100267.88
2023-04-23T14:34:39.595Z,100262.66
2023-04-23T14:37:06.199Z,100260.28
2023-04-23T14:39:33.930Z,100250.19
2023-04-23T14:42:01.155Z,100255.59
2023-04-23T14:44:29.083Z,100252.47
2023-04-23T14:46:56.878Z,100248.81
2023-04-23T14:49:24.001Z,100249.25
2023-04-23T14:51:54.144Z,100252.09
2023-04-23T14:54:21.584Z,100247.00
2023-04-23T14:56:47.981Z,100239.47
2023-04-23T14:59:15.035Z,100236.31
2023-04-23T15:01:41.535Z,100225.16
2023-04-23T15:04:08.086Z,100217.56
2023-04-23T15:06:34.520Z,100223.38
2023-04-23T15:09:00.929Z,100219.81
2023-04-23T15:11:27.337Z,100217.69
2023-04-23T15:14:08.315Z,100208.88
2023-04-23T15:16:48.262Z,100218.06
2023-04-23T15:19:18.112Z,100205.66
2023-04-23T15:21:45.085Z,100207.63
2023-04-23T15:24:11.502Z,100213.88
2023-04-23T15:26:38.272Z,100205.97
2023-04-23T15:29:08.440Z,100207.97
2023-04-23T15:31:34.904Z,100207.09
2023-04-23T15:34:01.541Z,100199.81
2023-04-23T15:36:28.013Z,100205.78
2023-04-23T15:38:54.501Z,100200.84
2023-04-23T15:41:20.964Z,100200.84
2023-04-23T15:43:50.223Z,100198.06
2023-04-23T15:46:16.671Z,100203.88
2023-04-23T15:48:43.936Z,100201.94
2023-04-23T15:51:10.454Z,100207.34
2023-04-23T15:53:36.864Z,100200.75
2023-04-23T15:56:03.526Z,100200.22
2023-04-23T15:58:29.946Z,100199.81
2023-04-23T16:00:56.411Z,100193.78
2023-04-23T16:03:23.011Z,100194.06
2023-04-23T16:05:50.973Z,100187.28
2023-04-23T16:08:17.432Z,100182.88
2023-04-23T16:10:43.899Z,100187.38
2023-04-23T16:13:10.534Z,100184.53
2023-04-23T16:15:36.987Z,100176.94
2023-04-23T16:18:03.521Z,100174.63
2023-04-23T16:20:30.563Z,100175.72
2023-04-23T16:22:57.010Z,100175.16
2023-04-23T16:25:24.116Z,100176.59
2023-04-23T16:27:50.673Z,100168.81
2023-04-23T16:30:17.092Z,100158.94
2023-04-23T16:32:43.592Z,100157.25
2023-04-23T16:35:10.341Z,100156.56
2023-04-23T16:37:36.739Z,100154.41
2023-04-23T16:40:03.363Z,100153.72
2023-04-23T16:42:29.795Z,100152.31
2023-04-23T16:44:56.267Z,100150.84
2023-04-23T16:47:22.742Z,100153.41
2023-04-23T16:49:49.180Z,100149.44
2023-04-23T16:52:16.082Z,100139.91
2023-04-23T16:54:42.761Z,100136.28
2023-04-23T16:57:09.359Z,100134.97
2023-04-23T16:59:35.893Z,100139.47
2023-04-23T17:02:02.377Z,100135.28
2023-04-23T17:04:28.967Z,100139.16
2023-04-23T17:06:55.654Z,100137.00
2023-04-23T17:09:22.147Z,100140.78
2023-04-23T17:11:48.554Z,100140.91
2023-04-23T17:14:14.964Z,100128.72
2023-04-23T17:16:41.717Z,100135.25
2023-04-23T17:19:08.302Z,100133.47
2023-04-23T17:21:34.757Z,100129.34
2023-04-23T17:24:01.266Z,100127.78
2023-04-23T17:26:27.732Z,100127.78
2023-04-23T17:28:54.230Z,100123.63
2023-04-23T17:31:20.924Z,100123.06
2023-04-23T17:33:49.469Z,100112.66
2023-04-23T17:36:17.163Z,100113.13
2023-04-23T17:38:43.710Z,100112.88
2023-04-23T17:41:10.350Z,100119.25
2023-04-23T17:43:36.779Z,100114.06
2023-04-23T17:46:03.528Z,100114.53
2023-04-23T17:48:30.221Z,100108.84
2023-04-23T17:50:56.684Z,100105.44
2023-04-23T17:53:23.140Z,100109.94
2023-04-23T17:55:49.542Z,100110.75
2023-04-23T17:58:16.484Z,100117.84
2023-04-23T18:00:43.154Z,100114.75
2023-04-23T18:03:11.737Z,100112.50
2023-04-23T18:05:38.408Z,100115.41
2023-04-23T18:08:06.830Z,100112.13
2023-04-23T18:10:33.383Z,100126.06
2023-04-23T18:13:02.833Z,100113.75
2023-04-23T18:15:32.168Z,100117.69
2023-04-23T18:17:58.961Z,100113.06
2023-04-23T18:20:26.565Z,100117.28
2023-04-23T18:22:55.912Z,100123.25
2023-04-23T18:25:22.474Z,100118.91
2023-04-23T18:27:48.990Z,100117.06
2023-04-23T18:30:15.577Z,100121.94
2023-04-23T18:32:47.020Z,100126.09
2023-04-23T18:35:13.711Z,100122.03
2023-04-23T18:38:02.638Z,100123.28
2023-04-23T18:40:29.081Z,100123.66
2023-04-23T18:42:55.896Z,100126.16
2023-04-23T18:45:22.295Z,100120.22
2023-04-23T18:47:58.131Z,100124.09
2023-04-23T18:50:38.189Z,100120.34
2023-04-23T18:53:05.011Z,100121.84
2023-04-23T18:55:31.468Z,100120.03
2023-04-23T18:57:58.642Z,100122.84
2023-04-23T19:00:25.453Z,100126.84
2023-04-23T19:02:52.274Z,100125.50
2023-04-23T19:05:18.796Z,100134.13
2023-04-23T19:07:45.280Z,100132.81
2023-04-23T19:10:12.133Z,100134.97
2023-04-23T19:12:38.808Z,100130.66
2023-04-23T19:15:05.922Z,100133.66
2023-04-23T19:17:32.554Z,100126.00
2023-04-23T19:19:59.008Z,100132.16
2023-04-23T19:22:25.772Z,100128.31
2023-04-23T19:24:52.236Z,100122.19
2023-04-23T19:27:18.645Z,100115.22
2023-04-23T19:29:46.437Z,100115.06
2023-04-23T19:32:12.892Z,100107.59
2023-04-23T19:34:39.315Z,100102.75
2023-04-23T19:37:06.610Z,100112.84
2023-04-23T19:39:33.050Z,100103.56
2023-04-23T19:41:59.452Z,100098.75
2023-04-23T19:44:25.864Z,100100.34
2023-04-23T19:46:52.403Z,100095.75
2023-04-23T19:49:18.869Z,100091.38
2023-04-23T19:51:46.161Z,100093.88
2023-04-23T19:54:12.581Z,100101.78
2023-04-23T19:56:38.983Z,100101.22
2023-04-23T19:59:09.491Z,100093.44
2023-04-23T20:01:36.247Z,100100.38
2023-04-23T20:04:06.965Z,100095.19
2023-04-23T20:06:33.569Z,100096.50
2023-04-23T20:09:18.704Z,100096.50
2023-04-23T20:11:46.189Z,100093.38
2023-04-23T20:14:15.428Z,100093.34
2023-04-23T20:16:41.942Z,100088.34
2023-04-23T20:19:11.825Z,100090.44
2023-04-23T20:21:39.402Z,100084.50
2023-04-23T20:24:10.258Z,100087.63
2023-04-23T20:26:37.773Z,100081.66
2023-04-23T20:29:04.678Z,100081.50
2023-04-23T20:31:31.333Z,100082.88
2023-04-23T20:33:57.973Z,100082.88
2023-04-23T20:36:28.666Z,100075.44
2023-04-23T20:38:58.046Z,100072.75
2023-04-23T20:41:26.429Z,100068.72
2023-04-23T20:43:52.933Z,100065.59
2023-04-23T20:46:19.397Z,100062.22
2023-04-23T20:48:45.885Z,100059.53
2023-04-23T20:51:12.308Z,100048.81
2023-04-23T20:53:38.730Z,100043.84
2023-04-23T20:56:05.136Z,100044.47
2023-04-23T20:58:31.586Z,100039.47
2023-04-23T21:00:58.042Z,100037.28
2023-04-23T21:03:24.576Z,100032.19
2023-04-23T21:05:51.089Z,100022.44
2023-04-23T21:08:17.526Z,100018.78
2023-04-23T21:10:44.458Z,100024.06
2023-04-23T21:13:12.117Z,100017.75
2023-04-23T21:15:38.863Z,100018.78
2023-04-23T21:18:05.876Z,100008.72
2023-04-23T21:20:32.467Z,100006.41
2023-04-23T21:22:58.883Z,100003.88
2023-04-23T21:25:26.693Z,100001.00
2023-04-23T21:27:55.169Z,99991.09
2023-04-23T21:30:29.870Z,100002.59
2023-04-23T21:32:56.335Z,99993.34
2023-04-23T21:35:22.820Z,99987.59
2023-04-23T21:37:49.227Z,99988.16
2023-04-23T21:40:15.694Z,99981.22
2023-04-23T21:42:42.190Z,99980.03
2023-04-23T21:45:09.005Z,99984.31
2023-04-23T21:47:35.559Z,99983.31
2023-04-23T21:50:02.121Z,99979.94
2023-04-23T21:52:28.710Z,99980.66
2023-04-23T21:54:55.154Z,99979.31
2023-04-23T21:57:21.585Z,99975.75
2023-04-23T21:59:48.022Z,99969.47
2023-04-23T22:02:14.799Z,99979.09
2023-04-23T22:04:41.254Z,99984.25
2023-04-23T22:07:12.378Z,99994.66
2023-04-23T22:09:39.291Z,99984.47
2023-04-23T22:12:05.848Z,99988.78
2023-04-23T22:14:32.281Z,99995.88
2023-04-23T22:16:58.972Z,99997.00
2023-04-23T22:19:25.929Z,99997.47
2023-04-23T22:21:52.346Z,99998.31
2023-04-23T22:24:18.775Z,99988.41
2023-04-23T22:26:45.688Z,99979.31
2023-04-23T22:29:12.178Z,99978.19
2023-04-23T22:31:38.601Z,99984.78
2023-04-23T22:34:05.078Z,99990.09
2023-04-23T22:36:32.583Z,99977.53
2023-04-23T22:38:59.010Z,99977.19
2023-04-23T22:41:25.824Z,99973.56
2023-04-23T22:43:54.087Z,99975.19
2023-04-23T22:46:20.538Z,99975.53
2023-04-23T22:48:47.451Z,99962.13
2023-04-23T22:51:14.157Z,99962.81
2023-04-23T22:53:40.790Z,99960.31
2023-04-23T22:56:07.526Z,99952.88
2023-04-23T22:58:34.077Z,99949.06
2023-04-23T23:01:00.504Z,99951.69
2023-04-23T23:03:27.263Z,99936.34
2023-04-23T23:05:53.823Z,99933.03
2023-04-23T23:08:20.227Z,99930.06
2023-04-23T23:10:46.634Z,99923.44
2023-04-23T23:13:13.060Z,99917.00
2023-04-23T23:15:39.538Z,99923.59
2023-04-23T23:18:06.157Z,99917.47
2023-04-23T23:20:32.666Z,99917.81
2023-04-23T23:22:59.081Z,99908.19
2023-04-23T23:25:25.625Z,99907.03
2023-04-23T23:27:52.029Z,99901.25
2023-04-23T23:30:18.464Z,99896.97
2023-04-23T23:32:46.052Z,99901.41
2023-04-23T23:35:12.604Z,99896.97
2023-04-23T23:37:39.027Z,99897.09
2023-04-23T23:40:06.081Z,99887.84
2023-04-23T23:42:32.493Z,99881.72
2023-04-23T23:44:58.898Z,99879.94
2023-04-23T23:47:25.387Z,99872.78
2023-04-23T23:49:51.821Z,99874.44
2023-04-23T23:52:18.233Z,99871.28
2023-04-23T23:54:44.640Z,99860.38
2023-04-23T23:57:11.863Z,99863.00
2023-04-23T23:59:38.516Z,99863.50
